To NAV CANADA Home Page Login to a new session Search on AWWS site Disclaimer Vers la page française équivalente Tips FAQ What's new on the site To the Forecasts and Observations / NOTAM section To "File a Flight Plan" website Publications and other links Update of the User's profile FIC Telephone Numbers My Weather Data Folder Route Weather Data Regional Weather Data Local Weather Data To the Forecasts and Observations / NOTAM section
Request Generated 04/24/2019 at 16:27:37 UTC . Weather information available at that time is displayed.

METAR/TAF

SHERBROOKE/QC    (show WxCam)

SPECI CYSC 241606Z AUTO 27009KT 9SM -RA BKN019 BKN028 OVC036 06/04 A2968 RMK SLP059=
SPECI CYSC 241602Z AUTO 27009KT 9SM FEW016 BKN021 BKN028 OVC036 06/04 A2968 RMK SLP058=
METAR CYSC 241600Z AUTO 28009KT 9SM SCT021 BKN028 OVC036 06/04 A2968 RMK SLP058=
SPECI CYSC 241533Z AUTO 28009KT 9SM FEW013 OVC034 07/05 A2967 RMK SLP056=
SPECI CYSC 241522Z AUTO 28010KT 9SM -RA FEW013 OVC032 06/05 A2967 RMK SLP056=
SPECI CYSC 241510Z AUTO 27007KT 9SM SCT013 SCT021 OVC030 06/05 A2967 RMK SLP056=
METAR CYSC 241500Z AUTO 27008KT 9SM FEW013 BKN020 BKN025 OVC030 06/05 A2967 RMK SLP056=
METAR CYSC 241400Z AUTO 28007KT 9SM FEW017 BKN024 OVC029 06/05 A2966 RMK SLP052=

TAF AMD CYSC 241532Z 2415/2423 27010KT P6SM SCT012 OVC030 TEMPO
2415/2417 5SM -RA BR SCT008 OVC020
FM241700 27010KT P6SM -RA OVC025 TEMPO 2417/2423 5SM -RA BR
BKN007 OVC020
RMK FCST BASED ON AUTO OBS. NXT FCST BY 241800Z=
Your time UTC time
Weather data provided by Environment Canada and NAV CANADA